createdAt,value
2018-12-29T00:01:05.786Z,49.27
2018-12-29T00:03:34.321Z,46.10
2018-12-29T00:06:10.737Z,44.17
2018-12-29T00:08:39.569Z,46.40
2018-12-29T00:11:08.135Z,44.57
2018-12-29T00:13:38.369Z,46.33
2018-12-29T00:16:15.380Z,52.70
2018-12-29T00:18:45.139Z,46.80
2018-12-29T00:21:13.702Z,45.13
2018-12-29T00:23:42.258Z,45.03
2018-12-29T00:26:10.772Z,49.13
2018-12-29T00:28:39.609Z,56.40
2018-12-29T00:31:08.198Z,46.97
2018-12-29T00:33:36.834Z,46.20
2018-12-29T00:36:05.357Z,45.63
2018-12-29T00:38:33.919Z,45.70
2018-12-29T00:41:02.517Z,44.23
2018-12-29T00:43:31.082Z,44.87
2018-12-29T00:45:59.665Z,44.83
2018-12-29T00:48:28.161Z,44.77
2018-12-29T00:50:56.834Z,44.70
2018-12-29T00:53:25.444Z,43.00
2018-12-29T00:55:53.986Z,42.87
2018-12-29T00:58:26.952Z,45.70
2018-12-29T01:00:55.453Z,46.07
2018-12-29T01:03:23.973Z,44.00
2018-12-29T01:05:52.485Z,46.27
2018-12-29T01:08:21.922Z,47.53
2018-12-29T01:10:50.561Z,47.33
2018-12-29T01:13:19.125Z,47.43
2018-12-29T01:15:47.647Z,45.27
2018-12-29T01:18:16.161Z,46.67
2018-12-29T01:20:44.712Z,45.90
2018-12-29T01:23:13.287Z,47.17
2018-12-29T01:25:41.879Z,45.20
2018-12-29T01:28:10.441Z,44.27
2018-12-29T01:30:38.984Z,46.43
2018-12-29T01:33:07.490Z,45.43
2018-12-29T01:35:36.078Z,46.17
2018-12-29T01:38:04.710Z,44.00
2018-12-29T01:40:33.217Z,46.07
2018-12-29T01:43:01.793Z,46.47
2018-12-29T01:45:30.338Z,48.10
2018-12-29T01:47:58.889Z,46.90
2018-12-29T01:50:27.401Z,44.20
2018-12-29T01:52:55.966Z,46.63
2018-12-29T01:55:24.458Z,44.60
2018-12-29T01:57:52.965Z,47.23
2018-12-29T02:00:21.536Z,46.70
2018-12-29T02:02:50.164Z,46.13
2018-12-29T02:05:18.655Z,47.17
2018-12-29T02:07:47.252Z,47.73
2018-12-29T02:10:15.841Z,48.10
2018-12-29T02:12:44.423Z,47.17
2018-12-29T02:15:13.073Z,46.33
2018-12-29T02:17:41.582Z,45.77
2018-12-29T02:20:10.091Z,47.17
2018-12-29T02:22:38.682Z,45.87
2018-12-29T02:25:07.239Z,44.27
2018-12-29T02:27:35.824Z,47.10
2018-12-29T02:30:04.958Z,47.90
2018-12-29T02:32:33.607Z,47.17
2018-12-29T02:35:02.119Z,45.97
2018-12-29T02:37:30.699Z,47.20
2018-12-29T02:39:59.337Z,44.60
2018-12-29T02:42:27.989Z,44.30
2018-12-29T02:44:56.489Z,46.07
2018-12-29T02:47:25.074Z,45.40
2018-12-29T02:49:53.650Z,46.33
2018-12-29T02:52:22.254Z,47.07
2018-12-29T02:54:50.883Z,45.23
2018-12-29T02:57:19.399Z,46.63
2018-12-29T02:59:47.922Z,46.20
2018-12-29T03:02:16.435Z,46.30
2018-12-29T03:04:45.017Z,45.93
2018-12-29T03:07:13.606Z,47.70
2018-12-29T03:09:42.090Z,48.27
2018-12-29T03:12:10.670Z,46.57
2018-12-29T03:14:39.238Z,46.57
2018-12-29T03:17:07.745Z,49.00
2018-12-29T03:19:36.237Z,46.90
2018-12-29T03:22:04.754Z,45.67
2018-12-29T03:24:33.258Z,47.83
2018-12-29T03:27:01.776Z,47.40
2018-12-29T03:29:30.337Z,47.37
2018-12-29T03:31:58.839Z,46.20
2018-12-29T03:34:27.419Z,47.13
2018-12-29T03:36:56.066Z,46.90
2018-12-29T03:39:24.582Z,47.37
2018-12-29T03:41:53.124Z,48.53
2018-12-29T03:44:21.715Z,44.93
2018-12-29T03:46:50.356Z,48.30
2018-12-29T03:49:18.966Z,47.43
2018-12-29T03:51:47.593Z,47.40
2018-12-29T03:54:16.095Z,46.80
2018-12-29T03:56:44.605Z,48.43
2018-12-29T03:59:13.214Z,46.97
2018-12-29T04:01:41.815Z,46.67
2018-12-29T04:04:10.480Z,46.63
2018-12-29T04:06:39.042Z,47.33
2018-12-29T04:09:32.140Z,47.20
2018-12-29T04:12:06.146Z,44.47
2018-12-29T04:14:36.275Z,45.00
2018-12-29T04:17:05.102Z,47.17
2018-12-29T04:19:33.687Z,46.43
2018-12-29T04:22:02.338Z,45.83
2018-12-29T04:24:30.936Z,47.77
2018-12-29T04:26:59.493Z,47.33
2018-12-29T04:29:28.026Z,44.93
2018-12-29T04:31:56.590Z,45.77
2018-12-29T04:34:25.101Z,46.07
2018-12-29T04:36:53.606Z,44.67
2018-12-29T04:39:22.115Z,43.03
2018-12-29T04:41:50.722Z,43.80
2018-12-29T04:44:19.344Z,45.63
2018-12-29T04:46:47.887Z,46.10
2018-12-29T04:49:18.007Z,43.13
2018-12-29T04:51:46.591Z,44.90
2018-12-29T04:54:15.200Z,41.87
2018-12-29T04:56:43.808Z,41.83
2018-12-29T04:59:12.398Z,40.43
2018-12-29T05:01:40.894Z,40.43
2018-12-29T05:04:09.490Z,40.43
2018-12-29T05:06:38.049Z,39.37
2018-12-29T05:09:06.937Z,38.03
2018-12-29T05:11:35.497Z,38.53
2018-12-29T05:14:04.106Z,42.57
2018-12-29T05:16:32.615Z,40.20
2018-12-29T05:19:01.165Z,40.73
2018-12-29T05:21:29.678Z,40.83
2018-12-29T05:23:58.176Z,39.97
2018-12-29T05:26:26.827Z,37.37
2018-12-29T05:28:55.387Z,40.27
2018-12-29T05:31:24.148Z,40.20
2018-12-29T05:33:52.710Z,39.80
2018-12-29T05:36:21.219Z,41.07
2018-12-29T05:38:49.776Z,39.57
2018-12-29T05:41:18.289Z,41.40
2018-12-29T05:43:46.857Z,40.93
2018-12-29T05:46:20.280Z,41.10
2018-12-29T05:48:45.715Z,41.07
2018-12-29T05:51:14.289Z,39.97
2018-12-29T05:53:42.852Z,39.70
2018-12-29T05:56:11.436Z,38.77
2018-12-29T05:58:40.067Z,40.63
2018-12-29T06:01:08.661Z,40.03
2018-12-29T06:03:37.153Z,40.00
2018-12-29T06:06:05.666Z,39.67
2018-12-29T06:08:34.234Z,41.30
2018-12-29T06:11:04.462Z,41.97
2018-12-29T06:13:33.012Z,41.60
2018-12-29T06:16:01.601Z,41.20
2018-12-29T06:18:30.096Z,41.27
2018-12-29T06:20:58.610Z,44.43
2018-12-29T06:23:27.098Z,41.23
2018-12-29T06:25:55.585Z,44.70
2018-12-29T06:28:24.179Z,41.07
2018-12-29T06:30:52.785Z,41.30
2018-12-29T06:33:21.320Z,43.63
2018-12-29T06:35:49.854Z,44.00
2018-12-29T06:38:18.437Z,43.43
2018-12-29T06:40:47.005Z,44.93
2018-12-29T06:43:15.512Z,44.73
2018-12-29T06:45:44.085Z,45.77
2018-12-29T06:48:12.670Z,44.13
2018-12-29T06:50:41.237Z,44.33
2018-12-29T06:53:09.824Z,44.73
2018-12-29T06:55:38.397Z,45.80
2018-12-29T06:58:07.284Z,45.30
2018-12-29T07:00:35.838Z,45.23
2018-12-29T07:03:04.358Z,42.10
2018-12-29T07:05:32.941Z,46.87
2018-12-29T07:08:01.457Z,47.37
2018-12-29T07:10:30.049Z,44.90
2018-12-29T07:12:58.566Z,46.17
2018-12-29T07:15:27.150Z,48.70
2018-12-29T07:17:55.733Z,47.07
2018-12-29T07:20:24.225Z,47.17
2018-12-29T07:22:52.813Z,46.90
2018-12-29T07:25:21.386Z,48.33
2018-12-29T07:27:50.029Z,48.10
2018-12-29T07:30:20.181Z,45.70
2018-12-29T07:32:48.716Z,46.17
2018-12-29T07:35:17.362Z,46.93
2018-12-29T07:37:45.965Z,45.70
2018-12-29T07:40:14.500Z,44.77
2018-12-29T07:42:43.086Z,45.40
2018-12-29T07:45:11.590Z,48.60
2018-12-29T07:47:40.104Z,46.03
2018-12-29T07:50:08.597Z,47.23
2018-12-29T07:52:37.165Z,49.57
2018-12-29T07:55:05.754Z,48.97
2018-12-29T07:57:34.264Z,45.83
2018-12-29T08:00:02.999Z,48.47
2018-12-29T08:02:31.577Z,50.63
2018-12-29T08:05:00.228Z,47.33
2018-12-29T08:07:28.786Z,49.40
2018-12-29T08:09:57.388Z,50.33
2018-12-29T08:12:25.959Z,52.17
2018-12-29T08:14:54.537Z,50.27
2018-12-29T08:17:23.030Z,50.63
2018-12-29T08:19:51.545Z,51.50
2018-12-29T08:22:20.114Z,48.13
2018-12-29T08:24:48.650Z,49.17
2018-12-29T08:27:17.185Z,49.97
2018-12-29T08:29:45.694Z,50.23
2018-12-29T08:32:14.283Z,49.97
2018-12-29T08:34:42.862Z,50.67
2018-12-29T08:37:11.430Z,50.63
2018-12-29T08:39:40.026Z,51.90
2018-12-29T08:42:08.523Z,50.03
2018-12-29T08:44:37.118Z,51.23
2018-12-29T08:47:05.686Z,51.47
2018-12-29T08:49:34.258Z,49.23
2018-12-29T08:52:02.866Z,49.73
2018-12-29T08:54:31.377Z,52.23
2018-12-29T08:56:59.893Z,50.00
2018-12-29T08:59:28.394Z,50.50
2018-12-29T09:01:57.005Z,50.60
2018-12-29T09:04:25.566Z,51.77
2018-12-29T09:06:54.168Z,53.07
2018-12-29T09:09:22.744Z,52.00
2018-12-29T09:11:51.329Z,53.53
2018-12-29T09:14:19.891Z,54.53
2018-12-29T09:16:48.473Z,53.13
2018-12-29T09:19:16.962Z,56.63
2018-12-29T09:21:45.549Z,53.37
2018-12-29T09:24:14.119Z,56.20
2018-12-29T09:26:42.710Z,54.77
2018-12-29T09:29:11.314Z,55.53
2018-12-29T09:31:39.829Z,57.27
2018-12-29T09:34:08.405Z,57.70
2018-12-29T09:36:36.942Z,58.50
2018-12-29T09:39:07.157Z,57.50
2018-12-29T09:41:35.780Z,57.60
2018-12-29T09:44:04.364Z,57.40
2018-12-29T09:46:36.182Z,58.13
2018-12-29T09:49:04.791Z,57.17
2018-12-29T09:51:33.375Z,58.40
2018-12-29T09:54:01.871Z,57.93
2018-12-29T09:56:30.454Z,57.17
2018-12-29T09:58:58.961Z,59.60
2018-12-29T10:01:27.537Z,59.67
2018-12-29T10:03:56.130Z,62.50
2018-12-29T10:06:24.699Z,63.13
2018-12-29T10:08:53.220Z,60.63
2018-12-29T10:11:23.045Z,62.37
2018-12-29T10:13:51.689Z,59.57
2018-12-29T10:16:20.254Z,62.80
2018-12-29T10:18:48.853Z,60.97
2018-12-29T10:21:17.520Z,60.17
2018-12-29T10:23:46.097Z,63.60
2018-12-29T10:26:14.601Z,59.77
2018-12-29T10:28:43.265Z,64.63
2018-12-29T10:31:11.914Z,61.77
2018-12-29T10:33:40.526Z,62.23
2018-12-29T10:36:09.092Z,62.70
2018-12-29T10:38:37.612Z,60.37
2018-12-29T10:41:06.182Z,61.80
2018-12-29T10:43:34.844Z,61.80
2018-12-29T10:46:03.469Z,63.77
2018-12-29T10:48:32.137Z,63.47
2018-12-29T10:51:00.625Z,68.43
2018-12-29T10:53:29.209Z,66.83
2018-12-29T10:55:57.770Z,66.27
2018-12-29T10:58:27.510Z,64.90
2018-12-29T11:00:56.075Z,65.73
2018-12-29T11:03:24.725Z,64.30
2018-12-29T11:05:53.403Z,62.43
2018-12-29T11:08:21.994Z,62.27
2018-12-29T11:10:50.603Z,64.77
2018-12-29T11:13:19.276Z,63.20
2018-12-29T11:15:47.781Z,62.40
2018-12-29T11:18:16.382Z,60.67
2018-12-29T11:20:44.958Z,62.63
2018-12-29T11:23:14.083Z,64.27
2018-12-29T11:25:42.609Z,59.20
2018-12-29T11:28:11.185Z,58.50
2018-12-29T11:30:39.725Z,58.27
2018-12-29T11:33:08.309Z,56.20
2018-12-29T11:35:36.845Z,60.37
2018-12-29T11:38:05.399Z,57.70
2018-12-29T11:40:34.072Z,55.83
2018-12-29T11:43:02.621Z,56.10
2018-12-29T11:45:31.214Z,53.70
2018-12-29T11:47:59.771Z,52.33
2018-12-29T11:50:28.358Z,54.20
2018-12-29T11:52:56.927Z,52.07
2018-12-29T11:55:25.521Z,53.60
2018-12-29T11:57:54.123Z,51.80
2018-12-29T12:00:22.705Z,52.97
2018-12-29T12:02:52.506Z,52.37
2018-12-29T12:05:21.056Z,50.17
2018-12-29T12:07:49.634Z,49.43
2018-12-29T12:10:18.281Z,49.57
2018-12-29T12:12:46.862Z,50.17
2018-12-29T12:15:15.462Z,52.17
2018-12-29T12:17:44.026Z,49.33
2018-12-29T12:20:12.649Z,49.80
2018-12-29T12:22:41.261Z,51.40
2018-12-29T12:25:09.904Z,48.17
2018-12-29T12:27:38.494Z,46.40
2018-12-29T12:30:07.954Z,74.07
2018-12-29T12:32:36.536Z,48.77
2018-12-29T12:35:05.542Z,46.77
2018-12-29T12:37:34.139Z,44.87
2018-12-29T12:40:02.713Z,44.90
2018-12-29T12:42:32.573Z,44.17
2018-12-29T12:45:01.193Z,43.47
2018-12-29T12:47:32.461Z,45.17
2018-12-29T12:50:01.048Z,43.73
2018-12-29T12:52:29.847Z,41.20
2018-12-29T12:54:58.470Z,42.43
2018-12-29T12:57:27.059Z,41.53
2018-12-29T12:59:55.932Z,43.27
2018-12-29T13:02:24.718Z,42.60
2018-12-29T13:04:53.294Z,41.90
2018-12-29T13:07:21.878Z,42.20
2018-12-29T13:09:50.443Z,41.83
2018-12-29T13:12:19.026Z,42.97
2018-12-29T13:14:47.901Z,42.03
2018-12-29T13:17:16.497Z,41.30
2018-12-29T13:19:45.077Z,40.97
2018-12-29T13:22:13.665Z,41.73
2018-12-29T13:24:42.242Z,39.83
2018-12-29T13:27:11.138Z,40.87
2018-12-29T13:29:39.718Z,40.53
2018-12-29T13:32:08.277Z,39.97
2018-12-29T13:34:36.861Z,40.00
2018-12-29T13:37:05.454Z,40.70
2018-12-29T13:39:34.321Z,41.07
2018-12-29T13:42:02.921Z,39.50
2018-12-29T13:44:31.505Z,39.33
2018-12-29T13:47:00.080Z,40.47
2018-12-29T13:49:28.667Z,39.30
2018-12-29T13:51:57.433Z,39.07
2018-12-29T13:54:26.042Z,40.37
2018-12-29T13:56:54.613Z,37.23
2018-12-29T13:59:23.202Z,38.83
2018-12-29T14:01:51.766Z,38.13
2018-12-29T14:04:22.613Z,38.17
2018-12-29T14:06:51.174Z,37.00
2018-12-29T14:09:19.839Z,37.70
2018-12-29T14:11:48.406Z,38.27
2018-12-29T14:14:16.989Z,35.63
2018-12-29T14:16:45.550Z,36.33
2018-12-29T14:19:18.278Z,33.27
2018-12-29T14:21:46.842Z,34.07
2018-12-29T14:24:15.434Z,32.57
2018-12-29T14:26:43.998Z,33.13
2018-12-29T14:29:12.767Z,31.50
2018-12-29T14:31:41.344Z,31.67
2018-12-29T14:34:10.007Z,31.43
2018-12-29T14:36:38.565Z,33.60
2018-12-29T14:39:07.434Z,32.87
2018-12-29T14:41:36.014Z,32.53
2018-12-29T14:44:04.585Z,34.73
2018-12-29T14:46:33.322Z,33.97
2018-12-29T14:49:01.898Z,35.67
2018-12-29T14:51:30.794Z,35.67
2018-12-29T14:53:59.373Z,37.37
2018-12-29T14:56:27.963Z,38.67
2018-12-29T14:58:56.621Z,38.90
2018-12-29T15:01:26.515Z,38.27
2018-12-29T15:03:55.253Z,39.03
2018-12-29T15:06:24.526Z,39.20
2018-12-29T15:08:53.690Z,38.87
2018-12-29T15:11:23.057Z,40.37
2018-12-29T15:13:51.859Z,39.83
2018-12-29T15:16:20.518Z,43.10
2018-12-29T15:18:49.091Z,39.67
2018-12-29T15:21:17.794Z,39.87
2018-12-29T15:23:46.353Z,40.30
2018-12-29T15:26:15.246Z,43.40
2018-12-29T15:28:44.218Z,39.10
2018-12-29T15:31:12.903Z,36.33
2018-12-29T15:33:41.765Z,37.83
2018-12-29T15:36:16.035Z,35.93
2018-12-29T15:38:40.665Z,32.00
2018-12-29T15:41:09.258Z,32.47
2018-12-29T15:43:37.826Z,32.57
2018-12-29T15:46:06.414Z,30.17
2018-12-29T15:48:39.627Z,30.27
2018-12-29T15:51:08.495Z,29.80
2018-12-29T15:53:37.054Z,29.03
2018-12-29T15:56:05.639Z,29.00
2018-12-29T15:58:34.209Z,28.17
2018-12-29T16:01:02.873Z,27.80
2018-12-29T16:03:31.437Z,27.43
2018-12-29T16:06:00.146Z,25.33
2018-12-29T16:08:29.013Z,25.83
2018-12-29T16:10:57.603Z,26.07
2018-12-29T16:13:27.183Z,24.80
2018-12-29T16:15:56.041Z,26.53
2018-12-29T16:18:25.038Z,25.20
2018-12-29T16:20:55.374Z,23.57
2018-12-29T16:23:24.011Z,25.13
2018-12-29T16:25:52.773Z,23.77
2018-12-29T16:28:21.381Z,24.83
2018-12-29T16:30:49.940Z,25.77
2018-12-29T16:33:18.529Z,25.43
2018-12-29T16:35:47.097Z,25.43
2018-12-29T16:38:15.964Z,26.30
2018-12-29T16:40:44.561Z,27.17
2018-12-29T16:43:13.157Z,27.43
2018-12-29T16:45:41.741Z,27.67
2018-12-29T16:48:10.630Z,24.70
2018-12-29T16:50:39.221Z,25.63
2018-12-29T16:53:07.819Z,24.77
2018-12-29T16:55:36.388Z,23.97
2018-12-29T16:58:05.300Z,23.63
2018-12-29T17:00:33.860Z,25.60
2018-12-29T17:03:02.443Z,25.70
2018-12-29T17:05:31.006Z,24.27
2018-12-29T17:07:59.903Z,25.33
2018-12-29T17:10:28.450Z,27.33
2018-12-29T17:12:57.053Z,26.43
2018-12-29T17:15:25.710Z,28.73
2018-12-29T17:17:54.301Z,27.80
2018-12-29T17:20:22.862Z,29.57
2018-12-29T17:22:51.453Z,31.60
2018-12-29T17:25:20.046Z,31.30
2018-12-29T17:27:48.632Z,29.60
2018-12-29T17:30:17.204Z,29.77
2018-12-29T17:32:46.071Z,31.67
2018-12-29T17:35:14.914Z,32.90
2018-12-29T17:37:43.481Z,33.23
2018-12-29T17:40:12.066Z,34.97
2018-12-29T17:42:40.695Z,32.80
2018-12-29T17:45:09.594Z,36.13
2018-12-29T17:47:38.162Z,33.97
2018-12-29T17:50:07.223Z,36.07
2018-12-29T17:52:35.786Z,36.23
2018-12-29T17:55:04.641Z,37.07
2018-12-29T17:57:33.221Z,35.67
2018-12-29T18:00:01.806Z,37.87
2018-12-29T18:02:30.374Z,38.13
2018-12-29T18:04:58.953Z,38.10
2018-12-29T18:07:27.626Z,41.10
2018-12-29T18:09:57.245Z,42.20
2018-12-29T18:12:26.096Z,53.53
2018-12-29T18:14:54.671Z,63.77
2018-12-29T18:17:23.279Z,53.47
2018-12-29T18:19:51.843Z,51.07
2018-12-29T18:22:20.430Z,41.90
2018-12-29T18:24:48.994Z,41.57
2018-12-29T18:27:18.278Z,41.73
2018-12-29T18:29:46.913Z,40.83
2018-12-29T18:32:15.516Z,42.47
2018-12-29T18:34:44.087Z,42.57
2018-12-29T18:37:12.976Z,41.60
2018-12-29T18:39:41.525Z,41.20
2018-12-29T18:42:10.113Z,44.00
2018-12-29T18:44:38.726Z,41.37
2018-12-29T18:47:07.270Z,39.30
2018-12-29T18:49:38.659Z,40.40
2018-12-29T18:52:06.072Z,39.80
2018-12-29T18:54:34.637Z,38.60
2018-12-29T18:57:03.225Z,38.13
2018-12-29T18:59:31.789Z,39.20
2018-12-29T19:02:00.379Z,36.87
2018-12-29T19:04:28.960Z,34.33
2018-12-29T19:06:57.540Z,35.97
2018-12-29T19:09:26.130Z,33.10
2018-12-29T19:11:54.718Z,32.83
2018-12-29T19:14:23.371Z,35.13
2018-12-29T19:16:52.274Z,31.83
2018-12-29T19:19:21.144Z,32.53
2018-12-29T19:21:49.721Z,33.30
2018-12-29T19:24:18.290Z,31.00
2018-12-29T19:26:46.853Z,31.47
2018-12-29T19:29:15.458Z,30.83
2018-12-29T19:31:44.594Z,28.97
2018-12-29T19:34:14.114Z,28.87
2018-12-29T19:36:42.689Z,23.90
2018-12-29T19:39:11.581Z,20.70
2018-12-29T19:41:46.565Z,16.47
2018-12-29T19:44:10.387Z,16.33
2018-12-29T19:46:39.274Z,17.20
2018-12-29T19:49:07.856Z,18.97
2018-12-29T19:51:36.427Z,17.73
2018-12-29T19:54:05.104Z,18.30
2018-12-29T19:56:33.677Z,15.90
2018-12-29T19:59:02.585Z,14.37
2018-12-29T20:01:31.129Z,7.30
2018-12-29T20:04:00.022Z,6.47
2018-12-29T20:06:28.509Z,4.97
2018-12-29T20:08:57.094Z,4.10
2018-12-29T20:11:25.658Z,3.70
2018-12-29T20:13:54.251Z,4.40
2018-12-29T20:16:22.814Z,3.43
2018-12-29T20:18:51.401Z,4.67
2018-12-29T20:21:19.981Z,3.90
2018-12-29T20:23:48.549Z,5.70
2018-12-29T20:26:17.127Z,4.07
2018-12-29T20:28:45.695Z,3.60
2018-12-29T20:31:14.264Z,4.33
2018-12-29T20:33:42.863Z,3.87
2018-12-29T20:36:11.441Z,4.10
2018-12-29T20:38:39.997Z,5.20
2018-12-29T20:41:08.580Z,3.53
2018-12-29T20:43:37.352Z,4.33
2018-12-29T20:46:05.931Z,4.63
2018-12-29T20:48:34.618Z,4.33
2018-12-29T20:51:03.208Z,4.10
2018-12-29T20:53:31.774Z,3.67
2018-12-29T20:56:00.357Z,3.63
2018-12-29T20:58:28.942Z,4.87
2018-12-29T21:00:57.587Z,4.07
2018-12-29T21:03:26.137Z,5.77
2018-12-29T21:05:54.711Z,4.67
2018-12-29T21:08:23.273Z,6.43
2018-12-29T21:10:52.066Z,6.73
2018-12-29T21:13:20.625Z,7.23
2018-12-29T21:15:49.209Z,7.23
2018-12-29T21:18:17.778Z,6.17
2018-12-29T21:20:46.431Z,6.43
2018-12-29T21:23:14.990Z,5.77
2018-12-29T21:25:43.578Z,6.43
2018-12-29T21:28:12.165Z,5.70
2018-12-29T21:30:40.759Z,4.87
2018-12-29T21:33:22.526Z,5.40
2018-12-29T21:35:50.706Z,4.37
2018-12-29T21:38:19.270Z,6.83
2018-12-29T21:40:51.555Z,5.47
2018-12-29T21:43:20.147Z,5.10
2018-12-29T21:45:48.760Z,4.20
2018-12-29T21:48:17.329Z,5.47
2018-12-29T21:50:45.929Z,5.43
2018-12-29T21:53:14.506Z,5.37
2018-12-29T21:55:43.383Z,6.83
2018-12-29T21:58:11.949Z,7.07
2018-12-29T22:00:46.408Z,6.70
2018-12-29T22:03:14.987Z,5.23
2018-12-29T22:05:43.578Z,5.60
2018-12-29T22:08:12.179Z,4.43
2018-12-29T22:10:43.766Z,5.97
2018-12-29T22:13:12.343Z,5.03
2018-12-29T22:15:41.001Z,5.50
2018-12-29T22:18:09.615Z,5.20
2018-12-29T22:20:38.170Z,4.93
2018-12-29T22:23:06.795Z,5.83
2018-12-29T22:25:35.406Z,5.00
2018-12-29T22:28:03.996Z,5.77
2018-12-29T22:30:32.549Z,4.70
2018-12-29T22:33:01.137Z,5.27
2018-12-29T22:35:29.696Z,4.90
2018-12-29T22:37:58.281Z,3.97
2018-12-29T22:40:26.840Z,5.43
2018-12-29T22:42:55.526Z,4.87
2018-12-29T22:45:24.091Z,4.13
2018-12-29T22:47:52.674Z,4.47
2018-12-29T22:50:21.234Z,5.07
2018-12-29T22:52:49.825Z,5.53
2018-12-29T22:55:18.493Z,4.70
2018-12-29T22:57:51.831Z,4.27
2018-12-29T23:00:22.035Z,5.93
2018-12-29T23:02:50.626Z,4.77
2018-12-29T23:05:19.486Z,4.57
2018-12-29T23:07:48.066Z,5.07
2018-12-29T23:10:16.633Z,5.80
2018-12-29T23:12:45.209Z,5.20
2018-12-29T23:15:13.770Z,5.43
2018-12-29T23:17:42.358Z,5.33
2018-12-29T23:20:10.971Z,5.10
2018-12-29T23:22:39.534Z,4.73
2018-12-29T23:25:08.116Z,4.97
2018-12-29T23:27:37.083Z,6.30
2018-12-29T23:30:12.578Z,5.60
2018-12-29T23:32:38.314Z,7.37
2018-12-29T23:35:06.968Z,4.90
2018-12-29T23:37:35.549Z,5.00
2018-12-29T23:40:05.965Z,5.73
2018-12-29T23:42:34.531Z,6.17
2018-12-29T23:45:03.192Z,4.53
2018-12-29T23:47:32.056Z,5.57
2018-12-29T23:50:00.630Z,5.97
2018-12-29T23:52:29.240Z,6.40
2018-12-29T23:54:57.798Z,5.53
2018-12-29T23:57:26.367Z,5.00
2018-12-29T23:59:55.340Z,5.83
